Latest Weather Observations for Williamson

IDQ60801

Issued at 2:32 pm EST Saturday 13 February 2016 (issued every 30 minutes, with the page automatically refreshed every 10 minutes)

About weather observations | Map of weather stations | Latest weather observations for QLD | Other Formats
Station Details ID: 033195 Name: WILLIAMSON Lat: -22.47 Lon: 150.18 Height: 27.6 m
Data from the previous 72 hours. | See also: Recent months at Williamson
Date/Time
EST
Temp
°C
App
Temp
°C
Dew
Point
Rel
Hum
%
Delta-T
°C
Wind Press
QNH
hPa
Press
MSL
hPa
Rain
since 9 am
mm
Dir
 
Spd
km/h
Gust
km/h
Spd
kts
Gust
kts
13/02:30pm 30.8 30.2 18.5 47 8.0 S 19 32 10 17 1006.1 1005.9 0.0
13/02:00pm 30.5 30.7 18.6 49 7.7 S 15 22 8 12 1006.4 1006.2 0.0
13/01:30pm 30.6 30.6 18.0 47 8.1 SSE 15 24 8 13 1006.7 1006.5 0.0
13/01:00pm 30.7 30.2 17.7 45 8.3 SSE 17 28 9 15 1007.1 1006.9 0.0
13/12:30pm 30.3 29.8 17.7 46 8.0 S 17 30 9 16 1007.6 1007.4 0.0
13/12:00pm 29.2 28.8 18.0 51 7.2 S 17 26 9 14 1007.9 1007.7 0.0
13/11:30am 29.3 29.6 18.7 52 6.8 S 15 20 8 11 1008.5 1008.3 0.0
13/11:00am 29.2 28.5 17.4 49 7.5 S 17 33 9 18 1008.9 1008.7 0.0
13/10:30am 28.7 28.6 18.8 55 6.4 SSE 17 28 9 15 1009.1 1008.9 0.0
13/10:00am 27.7 26.8 16.9 51 6.8 S 17 28 9 15 1009.4 1009.2 0.0
13/09:30am 27.4 26.5 18.1 57 5.9 S 20 30 11 16 1009.3 1009.1 0.0
13/09:00am 26.3 25.0 16.8 56 5.9 SSE 19 30 10 16 1009.4 1009.2 0.0
13/08:30am 25.6 24.1 16.7 58 5.5 S 20 30 11 16 1009.5 1009.3 0.0
13/08:00am 24.8 23.7 17.3 63 4.7 S 19 28 10 15 1009.5 1009.3 0.0
13/07:30am 24.0 23.9 17.0 65 4.3 S 13 19 7 10 1009.4 1009.2 0.0
13/07:00am 23.3 23.7 17.3 69 3.7 SSW 11 17 6 9 1009.3 1009.1 0.0
13/06:30am 22.4 22.5 17.5 74 3.0 S 13 19 7 10 1008.9 1008.7 0.0
13/06:00am 21.9 22.2 17.9 78 2.5 SSW 13 17 7 9 1008.7 1008.5 0.0
13/05:30am 21.9 22.5 18.5 81 2.1 S 13 17 7 9 1008.2 1008.0 0.0
13/05:00am 22.2 22.9 18.8 81 2.1 S 13 19 7 10 1007.9 1007.7 0.0
13/04:30am 22.5 23.2 18.9 80 2.3 SSW 13 15 7 8 1007.7 1007.5 0.0
13/04:00am 22.6 23.6 19.4 82 2.0 SSW 13 17 7 9 1007.5 1007.3 0.0
13/03:30am 22.8 24.1 20.1 85 1.7 SSW 13 19 7 10 1007.6 1007.4 0.0
13/03:00am 22.3 26.4 20.8 91 1.0 CALM 0 6 0 3 1007.8 1007.6 0.0
13/02:30am 22.5 26.5 20.6 89 1.2 CALM 0 4 0 2 1007.9 1007.7 0.0
13/02:00am 23.6 26.0 20.1 81 2.3 WSW 7 7 4 4 1008.1 1007.9 0.0
13/01:30am 24.1 26.7 20.4 80 2.4 S 7 9 4 5 1008.4 1008.2 0.0
13/01:00am 24.5 27.5 20.0 76 2.9 SE 4 9 2 5 1008.8 1008.6 0.0
13/12:30am 25.1 28.1 20.1 74 3.2 SSE 4 7 2 4 1009.2 1009.0 0.0
13/12:00am 25.4 27.8 20.0 72 3.5 SSE 7 13 4 7 1009.5 1009.3 0.0
 
Date/Time
EST
Temp
°C
App
Temp
°C
Dew
Point
Rel
Hum
%
Delta-T
°C
Wind Press
QNH
hPa
Press
MSL
hPa
Rain
since 9 am
mm
Dir
 
Spd
km/h
Gust
km/h
Spd
kts
Gust
kts
12/11:30pm 25.9 27.6 20.2 71 3.7 SE 11 19 6 10 1009.8 1009.6 0.0
12/11:00pm 26.0 27.8 20.3 71 3.7 ESE 11 17 6 9 1010.2 1010.0 0.0
12/10:30pm 26.1 28.1 20.0 69 4.0 ESE 9 20 5 11 1010.3 1010.1 0.0
12/10:00pm 26.3 27.6 20.2 69 4.0 SE 13 26 7 14 1010.1 1009.9 0.0
12/09:30pm 26.3 27.1 19.9 68 4.2 ESE 15 24 8 13 1010.0 1009.8 0.0
12/09:00pm 26.4 27.3 20.0 68 4.2 ESE 15 26 8 14 1009.8 1009.6 0.0
12/08:30pm 26.7 27.2 19.3 64 4.8 ESE 15 22 8 12 1009.5 1009.3 0.0
12/08:00pm 26.8 28.2 18.6 60 5.2 ESE 9 19 5 10 1009.2 1009.0 0.0
12/07:30pm 27.1 28.2 18.1 58 5.7 E 9 15 5 8 1008.9 1008.7 0.0
12/07:00pm 27.6 27.9 18.0 55 6.1 ESE 13 17 7 9 1008.8 1008.6 0.0
12/06:30pm 28.2 29.1 19.2 58 5.8 E 13 24 7 13 1008.3 1008.1 0.0
12/06:00pm 29.1 28.8 18.2 51 7.0 ESE 17 28 9 15 1008.1 1007.9 0.0
12/05:30pm 29.9 29.7 17.7 48 7.8 E 15 22 8 12 1007.8 1007.6 0.0
12/05:00pm 30.6 30.7 18.3 47 7.9 ESE 15 24 8 13 1007.6 1007.4 0.0
12/04:30pm 30.9 30.2 16.5 42 9.0 SE 15 26 8 14 1007.3 1007.1 0.0
12/04:00pm 31.5 31.0 17.0 41 9.2 ESE 15 26 8 14 1007.2 1007.0 0.0
12/03:30pm 31.2 29.7 15.2 38 9.9 S 17 32 9 17 1007.4 1007.2 0.0
12/03:00pm 31.3 29.7 16.1 40 9.5 S 19 30 10 16 1007.5 1007.3 0.0
12/02:30pm 31.1 29.8 16.7 42 9.1 SSE 19 32 10 17 1007.7 1007.5 0.0
12/02:00pm 31.1 29.6 16.3 41 9.3 S 19 32 10 17 1008.0 1007.8 0.0
12/01:30pm 31.0 28.8 17.0 43 8.9 S 24 35 13 19 1008.1 1007.9 0.0
12/01:00pm 30.7 28.4 16.7 43 8.8 SSW 24 37 13 20 1008.3 1008.1 0.0
12/12:30pm 30.3 29.3 16.7 44 8.5 S 17 32 9 17 1008.8 1008.6 0.0
12/12:00pm 29.6 30.4 18.1 50 7.4 SSE 11 20 6 11 1009.3 1009.1 0.0
12/11:30am 29.6 30.5 18.4 51 7.2 SSE 11 20 6 11 1009.7 1009.5 0.0
12/11:00am 28.9 29.4 18.4 53 6.7 SE 13 24 7 13 1010.1 1009.9 0.0
12/10:30am 28.5 28.0 18.6 55 6.4 ESE 19 28 10 15 1010.4 1010.2 0.0
12/10:00am 28.0 29.2 19.8 61 5.4 S 13 24 7 13 1010.5 1010.3 0.0
12/09:30am 27.1 26.7 18.9 61 5.3 S 19 28 10 15 1010.8 1010.6 0.0
12/09:00am 26.6 26.3 19.5 65 4.6 S 20 26 11 14 1010.9 1010.7 0.0
12/08:30am 26.1 26.0 19.5 67 4.3 S 19 26 10 14 1011.0 1010.8 0.0
12/08:00am 25.7 26.8 19.6 69 3.9 SSE 13 20 7 11 1010.7 1010.5 0.0
12/07:30am 24.9 25.6 19.7 73 3.4 S 15 20 8 11 1010.6 1010.4 0.0
12/07:00am 23.6 24.5 19.3 77 2.8 SSW 13 19 7 10 1010.4 1010.2 0.0
12/06:30am 23.3 24.5 19.9 81 2.2 S 13 17 7 9 1010.1 1009.9 0.0
12/06:00am 23.1 24.3 19.9 82 2.1 S 13 19 7 10 1009.9 1009.7 0.0
12/05:30am 23.5 23.9 19.8 80 2.4 S 17 24 9 13 1009.8 1009.6 0.0
12/05:00am 23.7 24.2 20.0 80 2.4 SSW 17 24 9 13 1009.6 1009.4 0.0
12/04:30am 23.8 25.2 20.3 81 2.3 SSW 13 19 7 10 1009.2 1009.0 0.0
12/04:00am 24.1 26.9 20.4 80 2.4 S 6 11 3 6 1009.1 1008.9 0.0
12/03:30am 24.1 26.4 20.6 81 2.3 S 9 13 5 7 1009.0 1008.8 0.0
12/03:00am 24.5 25.9 20.4 78 2.7 S 13 17 7 9 1009.0 1008.8 0.0
12/02:30am 25.0 27.5 20.3 75 3.1 SSE 7 13 4 7 1009.0 1008.8 0.0
12/02:00am 25.3 27.4 20.1 73 3.4 SSE 9 17 5 9 1009.3 1009.1 0.0
12/01:30am 25.4 27.1 20.2 73 3.4 SSE 11 19 6 10 1009.5 1009.3 0.0
12/01:00am 25.5 27.4 20.5 74 3.3 SSE 11 19 6 10 1009.9 1009.7 0.0
12/12:30am 25.4 28.3 20.6 75 3.1 SSE 6 11 3 6 1010.1 1009.9 0.0
12/12:00am 24.7 28.8 20.8 79 2.6 CALM 0 6 0 3 1010.2 1010.0 0.0
 
Date/Time
EST
Temp
°C
App
Temp
°C
Dew
Point
Rel
Hum
%
Delta-T
°C
Wind Press
QNH
hPa
Press
MSL
hPa
Rain
since 9 am
mm
Dir
 
Spd
km/h
Gust
km/h
Spd
kts
Gust
kts
11/11:30pm 25.1 28.8 19.9 73 3.4 CALM 0 6 0 3 1010.3 1010.1 0.0
11/11:00pm 25.5 28.1 20.1 72 3.5 SSE 6 7 3 4 1010.4 1010.2 0.0
11/10:30pm 26.2 27.5 20.1 69 4.0 ESE 13 20 7 11 1010.3 1010.1 0.0
11/10:00pm 26.3 27.6 20.2 69 4.0 ESE 13 22 7 12 1010.2 1010.0 0.0
11/09:30pm 26.3 27.4 20.4 70 3.9 ESE 15 20 8 11 1010.5 1010.3 0.0
11/09:00pm 26.0 28.5 20.3 71 3.7 SE 7 13 4 7 1010.5 1010.3 0.0
11/08:30pm 26.1 28.6 20.2 70 3.9 ESE 7 17 4 9 1010.3 1010.1 0.0
11/08:00pm 26.1 28.5 20.0 69 4.0 ESE 7 11 4 6 1010.0 1009.8 0.0
11/07:30pm 26.4 28.3 19.8 67 4.3 E 9 11 5 6 1009.5 1009.3 0.0
11/07:00pm 27.0 28.3 19.4 63 4.9 ESE 11 19 6 10 1009.3 1009.1 0.0
11/06:30pm 27.8 28.9 18.8 58 5.8 ESE 11 19 6 10 1008.9 1008.7 0.0
11/06:00pm 28.6 29.1 18.4 54 6.5 ESE 13 20 7 11 1008.7 1008.5 0.0
11/05:30pm 29.0 29.6 18.7 53 6.6 E 13 22 7 12 1008.3 1008.1 0.0
11/05:00pm 29.3 29.6 18.7 52 6.8 ESE 15 28 8 15 1008.0 1007.8 0.0
11/04:30pm 29.9 29.2 17.4 47 7.9 ESE 17 24 9 13 1007.8 1007.6 0.0
11/04:00pm 30.4 29.9 17.8 46 8.1 E 17 28 9 15 1007.5 1007.3 0.0
11/03:30pm 30.2 30.8 18.6 49 7.5 SE 13 22 7 12 1007.5 1007.3 0.0
11/03:00pm 30.0 30.5 18.4 49 7.5 E 13 24 7 13 1007.6 1007.4 0.0
11/02:30pm 30.5 31.6 17.9 47 8.1 ESE 9 17 5 9 1007.8 1007.6 0.0
11/02:00pm 30.4 31.3 17.5 46 8.2 SSE 9 17 5 9 1008.2 1008.0 0.0
11/01:30pm 29.7 30.3 17.8 48 7.6 E 11 19 6 10 1008.4 1008.2 0.0
11/01:00pm 29.6 29.2 17.1 47 7.9 E 15 22 8 12 1008.8 1008.6 0.0
11/12:30pm 30.6 31.3 18.0 47 8.1 E 11 19 6 10 1009.1 1008.9 0.0
11/12:00pm 30.4 30.7 17.8 46 8.1 SE 13 24 7 13 1009.4 1009.2 0.0
11/11:30am 29.4 29.3 17.9 50 7.3 SSE 15 26 8 14 1009.8 1009.6 0.0
11/11:00am 29.3 29.3 18.1 51 7.2 SSE 15 24 8 13 1010.3 1010.1 0.0
11/10:30am 28.5 29.1 18.6 55 6.4 SE 13 20 7 11 1010.6 1010.4 0.0
11/10:00am 28.1 28.4 18.8 57 6.0 SE 15 28 8 15 1010.6 1010.4 0.0
11/09:30am 27.8 28.0 19.3 60 5.5 SSE 17 28 9 15 1010.5 1010.3 0.0
11/09:00am 26.7 27.4 20.5 69 4.1 S 17 24 9 13 1010.6 1010.4 0.0
11/08:30am 26.2 27.3 20.5 71 3.7 S 15 24 8 13 1010.6 1010.4 0.0
11/08:00am 25.4 26.4 20.2 73 3.4 S 15 22 8 12 1010.6 1010.4 0.0
11/07:30am 24.7 25.4 20.4 77 2.8 S 17 24 9 13 1010.4 1010.2 0.0
11/07:00am 23.9 24.9 20.2 80 2.4 S 15 20 8 11 1010.3 1010.1 0.0
11/06:30am 23.0 24.1 20.5 86 1.6 S 15 19 8 10 1009.9 1009.7 0.0
11/06:00am 22.8 24.5 20.9 89 1.2 S 13 17 7 9 1009.7 1009.5 0.0
11/05:30am 22.9 24.7 21.2 90 1.1 S 13 19 7 10 1009.4 1009.2 0.0
11/05:00am 22.9 24.9 20.8 88 1.4 S 11 15 6 8 1009.1 1008.9 0.0
11/04:30am 23.6 25.9 19.9 80 2.4 S 7 11 4 6 1008.9 1008.7 0.0
11/04:00am 24.1 26.0 19.8 77 2.8 SE 9 17 5 9 1008.7 1008.5 0.0
11/03:30am 23.1 26.3 21.2 89 1.2 S 6 9 3 5 1008.7 1008.5 0.0
11/03:00am 23.4 26.1 21.3 88 1.4 S 9 13 5 7 1008.8 1008.6 0.0
11/02:30am 23.4 26.5 21.1 87 1.5 S 6 9 3 5 1008.8 1008.6 0.0
11/02:00am 23.4 27.8 21.3 88 1.4 CALM 0 0 0 0 1008.9 1008.7 0.0
11/01:30am 23.6 28.0 21.3 87 1.5 CALM 0 0 0 0 1009.0 1008.8 0.0
11/01:00am 24.3 27.3 20.8 81 2.3 SSE 6 7 3 4 1009.2 1009.0 0.0
11/12:30am 24.3 28.3 20.6 80 2.4 CALM 0 0 0 0 1009.5 1009.3 0.0
11/12:00am 24.9 27.7 20.4 76 2.9 ESE 6 9 3 5 1009.9 1009.7 0.0
 
Date/Time
EST
Temp
°C
App
Temp
°C
Dew
Point
Rel
Hum
%
Delta-T
°C
Wind Press
QNH
hPa
Press
MSL
hPa
Rain
since 9 am
mm
Dir
 
Spd
km/h
Gust
km/h
Spd
kts
Gust
kts
10/11:30pm 25.4 28.0 20.4 74 3.3 ESE 7 15 4 8 1010.4 1010.2 0.0
10/11:00pm 25.6 27.4 20.4 73 3.4 ESE 11 19 6 10 1010.6 1010.4 0.0
10/10:30pm 25.7 27.1 20.3 72 3.5 ESE 13 22 7 12 1010.6 1010.4 0.0
10/10:00pm 25.7 27.6 20.5 73 3.4 ESE 11 19 6 10 1010.8 1010.6 0.0
10/09:30pm 25.9 27.8 20.5 72 3.5 ESE 11 22 6 12 1010.8 1010.6 0.0
10/09:00pm 25.8 27.2 20.4 72 3.5 ESE 13 20 7 11 1010.6 1010.4 0.0
10/08:30pm 26.0 27.8 20.3 71 3.7 ESE 11 17 6 9 1010.5 1010.3 0.0
10/08:00pm 26.2 27.7 19.8 68 4.2 ESE 11 19 6 10 1010.2 1010.0 0.0
10/07:30pm 26.4 28.2 19.5 66 4.5 ESE 9 11 5 6 1009.9 1009.7 0.0
10/07:00pm 27.0 28.7 19.4 63 4.9 ESE 9 15 5 8 1009.5 1009.3 0.0
10/06:30pm 27.8 28.5 18.8 58 5.8 ESE 13 26 7 14 1009.2 1009.0 0.0
10/06:00pm 28.7 29.4 18.8 55 6.4 ESE 13 20 7 11 1008.8 1008.6 0.0
10/05:30pm 29.3 29.2 17.8 50 7.3 ESE 15 22 8 12 1008.4 1008.2 0.0
10/05:00pm 29.9 30.4 18.3 49 7.5 ESE 13 26 7 14 1008.1 1007.9 0.0
10/04:30pm 29.8 29.2 17.6 48 7.8 E 17 24 9 13 1008.0 1007.8 0.0
10/04:00pm 30.1 29.9 17.5 46 8.0 E 15 28 8 15 1008.0 1007.8 0.0
10/03:30pm 29.6 30.1 18.4 51 7.2 E 13 20 7 11 1008.0 1007.8 0.0
10/03:00pm 29.4 29.2 18.5 52 7.0 E 17 24 9 13 1008.1 1007.9 0.0

Other Formats:

Comma delimited format used in spreadsheet applications
http://www.bom.gov.au/fwo/IDQ60801/IDQ60801.95370.axf

JavaScript Object Notation format (JSON) in row-major order
http://www.bom.gov.au/fwo/IDQ60801/IDQ60801.95370.json